sensor_id;sensor_type;location;lat;lon;timestamp;P1;durP1;ratioP1;P2;durP2;ratioP2
5646;SDS011;2845;48.626;9.362;2024-02-26T00:02:30;2.25;;;0.40;;
5646;SDS011;2845;48.626;9.362;2024-02-26T00:05:06;1.00;;;0.77;;
5646;SDS011;2845;48.626;9.362;2024-02-26T00:07:41;1.48;;;0.40;;
5646;SDS011;2845;48.626;9.362;2024-02-26T00:10:15;1.48;;;0.50;;
5646;SDS011;2845;48.626;9.362;2024-02-26T00:12:53;1.80;;;0.63;;
5646;SDS011;2845;48.626;9.362;2024-02-26T00:15:27;1.30;;;0.57;;
5646;SDS011;2845;48.626;9.362;2024-02-26T00:18:01;1.02;;;0.60;;
5646;SDS011;2845;48.626;9.362;2024-02-26T00:20:36;1.65;;;0.50;;
5646;SDS011;2845;48.626;9.362;2024-02-26T00:23:14;1.58;;;0.63;;
5646;SDS011;2845;48.626;9.362;2024-02-26T00:25:48;1.38;;;0.60;;
5646;SDS011;2845;48.626;9.362;2024-02-26T00:28:25;1.80;;;0.60;;
5646;SDS011;2845;48.626;9.362;2024-02-26T00:30:59;1.63;;;0.52;;
5646;SDS011;2845;48.626;9.362;2024-02-26T00:33:34;1.55;;;0.75;;
5646;SDS011;2845;48.626;9.362;2024-02-26T00:36:09;1.73;;;0.60;;
5646;SDS011;2845;48.626;9.362;2024-02-26T00:38:44;1.70;;;0.60;;
5646;SDS011;2845;48.626;9.362;2024-02-26T00:41:23;1.75;;;0.47;;
5646;SDS011;2845;48.626;9.362;2024-02-26T00:44:00;1.58;;;0.50;;
5646;SDS011;2845;48.626;9.362;2024-02-26T00:46:35;1.75;;;0.77;;
5646;SDS011;2845;48.626;9.362;2024-02-26T00:49:09;0.82;;;0.32;;
5646;SDS011;2845;48.626;9.362;2024-02-26T00:51:44;1.50;;;0.60;;
5646;SDS011;2845;48.626;9.362;2024-02-26T00:54:18;1.27;;;0.47;;
5646;SDS011;2845;48.626;9.362;2024-02-26T00:56:53;1.58;;;0.50;;
5646;SDS011;2845;48.626;9.362;2024-02-26T00:59:28;1.40;;;0.50;;
5646;SDS011;2845;48.626;9.362;2024-02-26T01:02:02;0.95;;;0.65;;
5646;SDS011;2845;48.626;9.362;2024-02-26T01:04:39;1.98;;;0.50;;
5646;SDS011;2845;48.626;9.362;2024-02-26T01:07:13;1.27;;;0.52;;
5646;SDS011;2845;48.626;9.362;2024-02-26T01:09:47;1.17;;;0.52;;
5646;SDS011;2845;48.626;9.362;2024-02-26T01:12:22;1.50;;;0.50;;
5646;SDS011;2845;48.626;9.362;2024-02-26T01:15:01;0.73;;;0.40;;
5646;SDS011;2845;48.626;9.362;2024-02-26T01:17:36;1.80;;;0.50;;
5646;SDS011;2845;48.626;9.362;2024-02-26T01:20:11;1.67;;;0.50;;
5646;SDS011;2845;48.626;9.362;2024-02-26T01:22:45;1.58;;;0.68;;
5646;SDS011;2845;48.626;9.362;2024-02-26T01:25:20;1.02;;;0.60;;
5646;SDS011;2845;48.626;9.362;2024-02-26T01:27:55;1.70;;;0.60;;
5646;SDS011;2845;48.626;9.362;2024-02-26T01:30:30;0.85;;;0.38;;
5646;SDS011;2845;48.626;9.362;2024-02-26T01:33:05;1.20;;;0.52;;
5646;SDS011;2845;48.626;9.362;2024-02-26T01:35:39;2.40;;;0.60;;
5646;SDS011;2845;48.626;9.362;2024-02-26T01:38:13;1.98;;;0.57;;
5646;SDS011;2845;48.626;9.362;2024-02-26T01:40:48;1.23;;;0.57;;
5646;SDS011;2845;48.626;9.362;2024-02-26T01:43:22;1.20;;;0.50;;
5646;SDS011;2845;48.626;9.362;2024-02-26T01:45:59;2.80;;;0.57;;
5646;SDS011;2845;48.626;9.362;2024-02-26T01:48:33;2.35;;;0.90;;
5646;SDS011;2845;48.626;9.362;2024-02-26T01:51:08;2.78;;;1.13;;
5646;SDS011;2845;48.626;9.362;2024-02-26T01:53:43;3.28;;;1.20;;
5646;SDS011;2845;48.626;9.362;2024-02-26T01:56:17;3.78;;;1.15;;
5646;SDS011;2845;48.626;9.362;2024-02-26T01:58:53;1.63;;;0.82;;
5646;SDS011;2845;48.626;9.362;2024-02-26T02:01:29;2.17;;;0.70;;
5646;SDS011;2845;48.626;9.362;2024-02-26T02:04:05;2.78;;;0.95;;
5646;SDS011;2845;48.626;9.362;2024-02-26T02:06:39;0.98;;;0.57;;
5646;SDS011;2845;48.626;9.362;2024-02-26T02:09:16;1.55;;;0.82;;
5646;SDS011;2845;48.626;9.362;2024-02-26T02:11:52;3.38;;;0.63;;
5646;SDS011;2845;48.626;9.362;2024-02-26T02:14:27;1.52;;;0.77;;
5646;SDS011;2845;48.626;9.362;2024-02-26T02:17:02;1.27;;;0.80;;
5646;SDS011;2845;48.626;9.362;2024-02-26T02:19:37;2.90;;;0.95;;
5646;SDS011;2845;48.626;9.362;2024-02-26T02:22:13;2.70;;;0.88;;
5646;SDS011;2845;48.626;9.362;2024-02-26T02:24:48;2.47;;;1.10;;
5646;SDS011;2845;48.626;9.362;2024-02-26T02:27:23;1.98;;;0.70;;
5646;SDS011;2845;48.626;9.362;2024-02-26T02:29:58;4.05;;;0.70;;
5646;SDS011;2845;48.626;9.362;2024-02-26T02:32:33;2.45;;;0.70;;
5646;SDS011;2845;48.626;9.362;2024-02-26T02:35:09;1.67;;;0.80;;
5646;SDS011;2845;48.626;9.362;2024-02-26T02:37:44;2.00;;;0.77;;
5646;SDS011;2845;48.626;9.362;2024-02-26T02:40:18;3.35;;;0.70;;
5646;SDS011;2845;48.626;9.362;2024-02-26T02:42:52;1.80;;;0.60;;
5646;SDS011;2845;48.626;9.362;2024-02-26T02:45:26;1.23;;;0.47;;
5646;SDS011;2845;48.626;9.362;2024-02-26T02:48:01;2.58;;;0.60;;
5646;SDS011;2845;48.626;9.362;2024-02-26T02:50:35;2.88;;;0.60;;
5646;SDS011;2845;48.626;9.362;2024-02-26T02:53:10;2.10;;;0.63;;
5646;SDS011;2845;48.626;9.362;2024-02-26T02:55:44;1.20;;;0.45;;
5646;SDS011;2845;48.626;9.362;2024-02-26T02:58:18;3.03;;;0.82;;
5646;SDS011;2845;48.626;9.362;2024-02-26T03:00:52;0.95;;;0.43;;
5646;SDS011;2845;48.626;9.362;2024-02-26T03:03:27;1.85;;;0.43;;
5646;SDS011;2845;48.626;9.362;2024-02-26T03:06:01;2.97;;;0.70;;
5646;SDS011;2845;48.626;9.362;2024-02-26T03:08:37;1.15;;;0.38;;
5646;SDS011;2845;48.626;9.362;2024-02-26T03:11:13;2.83;;;0.77;;
5646;SDS011;2845;48.626;9.362;2024-02-26T03:13:47;2.08;;;0.55;;
5646;SDS011;2845;48.626;9.362;2024-02-26T03:16:21;1.88;;;0.40;;
5646;SDS011;2845;48.626;9.362;2024-02-26T03:18:55;1.20;;;0.50;;
5646;SDS011;2845;48.626;9.362;2024-02-26T03:21:29;1.10;;;0.35;;
5646;SDS011;2845;48.626;9.362;2024-02-26T03:24:05;0.98;;;0.52;;
5646;SDS011;2845;48.626;9.362;2024-02-26T03:26:42;2.42;;;0.55;;
5646;SDS011;2845;48.626;9.362;2024-02-26T03:29:16;1.52;;;0.70;;
5646;SDS011;2845;48.626;9.362;2024-02-26T03:31:50;0.80;;;0.40;;
5646;SDS011;2845;48.626;9.362;2024-02-26T03:34:24;2.88;;;0.68;;
5646;SDS011;2845;48.626;9.362;2024-02-26T03:36:59;1.27;;;0.52;;
5646;SDS011;2845;48.626;9.362;2024-02-26T03:39:34;1.98;;;0.68;;
5646;SDS011;2845;48.626;9.362;2024-02-26T03:42:08;2.38;;;0.90;;
5646;SDS011;2845;48.626;9.362;2024-02-26T03:44:42;1.95;;;0.75;;
5646;SDS011;2845;48.626;9.362;2024-02-26T03:47:17;3.00;;;0.90;;
5646;SDS011;2845;48.626;9.362;2024-02-26T03:49:51;2.58;;;0.80;;
5646;SDS011;2845;48.626;9.362;2024-02-26T03:52:25;1.55;;;0.80;;
5646;SDS011;2845;48.626;9.362;2024-02-26T03:55:01;2.45;;;0.70;;
5646;SDS011;2845;48.626;9.362;2024-02-26T03:57:35;1.88;;;0.60;;
5646;SDS011;2845;48.626;9.362;2024-02-26T04:00:10;1.65;;;0.60;;
5646;SDS011;2845;48.626;9.362;2024-02-26T04:02:46;1.20;;;0.55;;
5646;SDS011;2845;48.626;9.362;2024-02-26T04:05:20;1.95;;;0.50;;
5646;SDS011;2845;48.626;9.362;2024-02-26T04:07:55;1.23;;;0.43;;
5646;SDS011;2845;48.626;9.362;2024-02-26T04:10:30;3.40;;;0.65;;
5646;SDS011;2845;48.626;9.362;2024-02-26T04:13:04;0.98;;;0.55;;
5646;SDS011;2845;48.626;9.362;2024-02-26T04:15:38;1.17;;;0.40;;
5646;SDS011;2845;48.626;9.362;2024-02-26T04:18:12;1.25;;;0.30;;
5646;SDS011;2845;48.626;9.362;2024-02-26T04:20:47;0.85;;;0.30;;
5646;SDS011;2845;48.626;9.362;2024-02-26T04:23:24;0.90;;;0.40;;
5646;SDS011;2845;48.626;9.362;2024-02-26T04:25:59;0.98;;;0.30;;
5646;SDS011;2845;48.626;9.362;2024-02-26T04:28:34;1.20;;;0.40;;
5646;SDS011;2845;48.626;9.362;2024-02-26T04:31:08;0.75;;;0.30;;
5646;SDS011;2845;48.626;9.362;2024-02-26T04:33:42;1.02;;;0.47;;
5646;SDS011;2845;48.626;9.362;2024-02-26T04:36:16;0.60;;;0.30;;
5646;SDS011;2845;48.626;9.362;2024-02-26T04:38:51;0.43;;;0.20;;
5646;SDS011;2845;48.626;9.362;2024-02-26T04:41:28;1.45;;;0.32;;
5646;SDS011;2845;48.626;9.362;2024-02-26T04:44:02;0.68;;;0.35;;
5646;SDS011;2845;48.626;9.362;2024-02-26T04:46:36;0.57;;;0.30;;
5646;SDS011;2845;48.626;9.362;2024-02-26T04:49:10;2.28;;;0.30;;
5646;SDS011;2845;48.626;9.362;2024-02-26T04:51:44;2.80;;;0.73;;
5646;SDS011;2845;48.626;9.362;2024-02-26T04:54:20;3.95;;;1.45;;
5646;SDS011;2845;48.626;9.362;2024-02-26T04:56:56;3.33;;;1.00;;
5646;SDS011;2845;48.626;9.362;2024-02-26T04:59:30;1.30;;;0.60;;
5646;SDS011;2845;48.626;9.362;2024-02-26T05:02:04;2.17;;;0.70;;
5646;SDS011;2845;48.626;9.362;2024-02-26T05:04:38;0.93;;;0.50;;
5646;SDS011;2845;48.626;9.362;2024-02-26T05:07:13;2.22;;;0.60;;
5646;SDS011;2845;48.626;9.362;2024-02-26T05:09:47;2.30;;;0.60;;
5646;SDS011;2845;48.626;9.362;2024-02-26T05:12:23;0.95;;;0.45;;
5646;SDS011;2845;48.626;9.362;2024-02-26T05:14:57;1.38;;;0.50;;
5646;SDS011;2845;48.626;9.362;2024-02-26T05:17:32;2.15;;;0.55;;
5646;SDS011;2845;48.626;9.362;2024-02-26T05:20:06;4.03;;;0.60;;
5646;SDS011;2845;48.626;9.362;2024-02-26T05:22:42;1.08;;;0.43;;
5646;SDS011;2845;48.626;9.362;2024-02-26T05:25:16;1.10;;;0.50;;
5646;SDS011;2845;48.626;9.362;2024-02-26T05:27:52;0.70;;;0.50;;
5646;SDS011;2845;48.626;9.362;2024-02-26T05:30:26;0.98;;;0.57;;
5646;SDS011;2845;48.626;9.362;2024-02-26T05:33:00;2.45;;;0.68;;
5646;SDS011;2845;48.626;9.362;2024-02-26T05:35:34;1.02;;;0.47;;
5646;SDS011;2845;48.626;9.362;2024-02-26T05:38:08;3.65;;;0.70;;
5646;SDS011;2845;48.626;9.362;2024-02-26T05:40:43;1.33;;;0.50;;
5646;SDS011;2845;48.626;9.362;2024-02-26T05:43:19;2.38;;;0.77;;
5646;SDS011;2845;48.626;9.362;2024-02-26T05:45:53;2.35;;;0.60;;
5646;SDS011;2845;48.626;9.362;2024-02-26T05:48:27;2.40;;;0.70;;
5646;SDS011;2845;48.626;9.362;2024-02-26T05:51:02;1.88;;;0.80;;
5646;SDS011;2845;48.626;9.362;2024-02-26T05:53:38;2.83;;;0.80;;
5646;SDS011;2845;48.626;9.362;2024-02-26T05:56:12;3.42;;;0.82;;
5646;SDS011;2845;48.626;9.362;2024-02-26T05:58:48;3.70;;;1.00;;
5646;SDS011;2845;48.626;9.362;2024-02-26T06:01:22;2.65;;;1.15;;
5646;SDS011;2845;48.626;9.362;2024-02-26T06:03:56;3.22;;;1.10;;
5646;SDS011;2845;48.626;9.362;2024-02-26T06:06:31;3.55;;;1.38;;
5646;SDS011;2845;48.626;9.362;2024-02-26T06:09:05;2.15;;;0.82;;
5646;SDS011;2845;48.626;9.362;2024-02-26T06:11:40;2.60;;;0.90;;
5646;SDS011;2845;48.626;9.362;2024-02-26T06:14:15;2.67;;;1.08;;
5646;SDS011;2845;48.626;9.362;2024-02-26T06:16:50;2.47;;;1.00;;
5646;SDS011;2845;48.626;9.362;2024-02-26T06:19:24;2.55;;;0.80;;
5646;SDS011;2845;48.626;9.362;2024-02-26T06:21:59;2.90;;;1.05;;
5646;SDS011;2845;48.626;9.362;2024-02-26T06:24:33;2.80;;;1.05;;
5646;SDS011;2845;48.626;9.362;2024-02-26T06:27:07;3.28;;;0.85;;
5646;SDS011;2845;48.626;9.362;2024-02-26T06:29:42;1.20;;;0.65;;
5646;SDS011;2845;48.626;9.362;2024-02-26T06:32:17;4.82;;;1.20;;
5646;SDS011;2845;48.626;9.362;2024-02-26T06:34:51;3.75;;;1.17;;
5646;SDS011;2845;48.626;9.362;2024-02-26T06:37:25;2.70;;;1.02;;
5646;SDS011;2845;48.626;9.362;2024-02-26T06:39:59;3.47;;;1.05;;
5646;SDS011;2845;48.626;9.362;2024-02-26T06:42:33;2.47;;;0.90;;
5646;SDS011;2845;48.626;9.362;2024-02-26T06:45:09;2.67;;;1.10;;
5646;SDS011;2845;48.626;9.362;2024-02-26T06:47:43;1.63;;;0.82;;
5646;SDS011;2845;48.626;9.362;2024-02-26T06:50:17;4.55;;;1.00;;
5646;SDS011;2845;48.626;9.362;2024-02-26T06:52:51;2.10;;;1.33;;
5646;SDS011;2845;48.626;9.362;2024-02-26T06:55:26;3.90;;;0.80;;
5646;SDS011;2845;48.626;9.362;2024-02-26T06:58:00;1.63;;;0.90;;
5646;SDS011;2845;48.626;9.362;2024-02-26T07:00:35;3.22;;;1.13;;
5646;SDS011;2845;48.626;9.362;2024-02-26T07:03:10;1.33;;;0.60;;
5646;SDS011;2845;48.626;9.362;2024-02-26T07:05:46;1.98;;;0.70;;
5646;SDS011;2845;48.626;9.362;2024-02-26T07:08:20;3.33;;;1.02;;
5646;SDS011;2845;48.626;9.362;2024-02-26T07:10:54;2.92;;;1.15;;
5646;SDS011;2845;48.626;9.362;2024-02-26T07:13:28;2.58;;;0.90;;
5646;SDS011;2845;48.626;9.362;2024-02-26T07:16:05;1.80;;;0.73;;
5646;SDS011;2845;48.626;9.362;2024-02-26T07:18:39;1.67;;;0.70;;
5646;SDS011;2845;48.626;9.362;2024-02-26T07:21:14;2.85;;;0.90;;
5646;SDS011;2845;48.626;9.362;2024-02-26T07:23:48;2.40;;;0.80;;
5646;SDS011;2845;48.626;9.362;2024-02-26T07:26:22;3.83;;;0.88;;
5646;SDS011;2845;48.626;9.362;2024-02-26T07:28:58;1.48;;;0.70;;
5646;SDS011;2845;48.626;9.362;2024-02-26T07:31:33;2.13;;;0.90;;
5646;SDS011;2845;48.626;9.362;2024-02-26T07:34:08;1.75;;;0.85;;
5646;SDS011;2845;48.626;9.362;2024-02-26T07:36:42;1.63;;;0.93;;
5646;SDS011;2845;48.626;9.362;2024-02-26T07:39:16;2.35;;;0.90;;
5646;SDS011;2845;48.626;9.362;2024-02-26T07:41:51;1.95;;;0.73;;
5646;SDS011;2845;48.626;9.362;2024-02-26T07:44:25;2.28;;;0.60;;
5646;SDS011;2845;48.626;9.362;2024-02-26T07:47:01;3.03;;;1.02;;
5646;SDS011;2845;48.626;9.362;2024-02-26T07:49:36;2.75;;;1.00;;
5646;SDS011;2845;48.626;9.362;2024-02-26T07:52:11;1.90;;;0.85;;
5646;SDS011;2845;48.626;9.362;2024-02-26T07:54:45;2.63;;;1.02;;
5646;SDS011;2845;48.626;9.362;2024-02-26T07:57:19;2.40;;;1.00;;
5646;SDS011;2845;48.626;9.362;2024-02-26T07:59:54;1.85;;;0.93;;
5646;SDS011;2845;48.626;9.362;2024-02-26T08:02:29;2.95;;;1.00;;
5646;SDS011;2845;48.626;9.362;2024-02-26T08:05:04;5.28;;;0.93;;
5646;SDS011;2845;48.626;9.362;2024-02-26T08:07:38;1.38;;;0.80;;
5646;SDS011;2845;48.626;9.362;2024-02-26T08:10:13;3.08;;;1.10;;
5646;SDS011;2845;48.626;9.362;2024-02-26T08:12:48;2.75;;;1.00;;
5646;SDS011;2845;48.626;9.362;2024-02-26T08:15:22;1.98;;;1.10;;
5646;SDS011;2845;48.626;9.362;2024-02-26T08:17:57;3.35;;;1.08;;
5646;SDS011;2845;48.626;9.362;2024-02-26T08:20:34;2.75;;;1.33;;
5646;SDS011;2845;48.626;9.362;2024-02-26T08:23:09;3.90;;;1.55;;
5646;SDS011;2845;48.626;9.362;2024-02-26T08:25:43;2.28;;;1.20;;
5646;SDS011;2845;48.626;9.362;2024-02-26T08:28:18;2.72;;;1.33;;
5646;SDS011;2845;48.626;9.362;2024-02-26T08:30:52;2.70;;;1.02;;
5646;SDS011;2845;48.626;9.362;2024-02-26T08:33:28;2.55;;;1.20;;
5646;SDS011;2845;48.626;9.362;2024-02-26T08:36:03;2.53;;;1.00;;
5646;SDS011;2845;48.626;9.362;2024-02-26T08:38:38;2.92;;;1.48;;
5646;SDS011;2845;48.626;9.362;2024-02-26T08:41:12;1.88;;;1.05;;
5646;SDS011;2845;48.626;9.362;2024-02-26T08:43:47;3.75;;;1.08;;
5646;SDS011;2845;48.626;9.362;2024-02-26T08:46:21;2.03;;;0.80;;
5646;SDS011;2845;48.626;9.362;2024-02-26T08:48:57;2.80;;;0.88;;
5646;SDS011;2845;48.626;9.362;2024-02-26T08:51:31;3.13;;;0.90;;
5646;SDS011;2845;48.626;9.362;2024-02-26T08:54:05;5.20;;;1.00;;
5646;SDS011;2845;48.626;9.362;2024-02-26T08:56:39;2.40;;;0.90;;
5646;SDS011;2845;48.626;9.362;2024-02-26T08:59:14;1.67;;;0.70;;
5646;SDS011;2845;48.626;9.362;2024-02-26T09:01:48;3.22;;;0.90;;
5646;SDS011;2845;48.626;9.362;2024-02-26T09:04:24;2.30;;;1.15;;
5646;SDS011;2845;48.626;9.362;2024-02-26T09:06:58;1.45;;;0.60;;
5646;SDS011;2845;48.626;9.362;2024-02-26T09:09:32;3.38;;;0.90;;
5646;SDS011;2845;48.626;9.362;2024-02-26T09:12:07;1.27;;;0.70;;
5646;SDS011;2845;48.626;9.362;2024-02-26T09:14:43;2.80;;;0.80;;
5646;SDS011;2845;48.626;9.362;2024-02-26T09:17:18;2.08;;;0.88;;
5646;SDS011;2845;48.626;9.362;2024-02-26T09:19:53;2.70;;;0.90;;
5646;SDS011;2845;48.626;9.362;2024-02-26T09:22:28;1.75;;;0.73;;
5646;SDS011;2845;48.626;9.362;2024-02-26T09:25:02;2.85;;;0.70;;
5646;SDS011;2845;48.626;9.362;2024-02-26T09:27:37;1.40;;;0.60;;
5646;SDS011;2845;48.626;9.362;2024-02-26T09:30:14;1.95;;;0.80;;
5646;SDS011;2845;48.626;9.362;2024-02-26T09:32:49;2.15;;;0.90;;
5646;SDS011;2845;48.626;9.362;2024-02-26T09:35:24;2.17;;;0.93;;
5646;SDS011;2845;48.626;9.362;2024-02-26T09:37:59;1.23;;;0.55;;
5646;SDS011;2845;48.626;9.362;2024-02-26T09:40:33;2.47;;;1.17;;
5646;SDS011;2845;48.626;9.362;2024-02-26T09:43:07;2.70;;;1.20;;
5646;SDS011;2845;48.626;9.362;2024-02-26T09:45:48;2.47;;;0.85;;
5646;SDS011;2845;48.626;9.362;2024-02-26T09:48:24;2.25;;;1.23;;
5646;SDS011;2845;48.626;9.362;2024-02-26T09:51:00;2.47;;;0.90;;
5646;SDS011;2845;48.626;9.362;2024-02-26T09:53:36;3.95;;;1.17;;
5646;SDS011;2845;48.626;9.362;2024-02-26T09:56:15;2.83;;;1.10;;
5646;SDS011;2845;48.626;9.362;2024-02-26T09:58:49;6.50;;;1.35;;
5646;SDS011;2845;48.626;9.362;2024-02-26T10:01:27;3.08;;;0.90;;
5646;SDS011;2845;48.626;9.362;2024-02-26T10:04:05;2.38;;;1.02;;
5646;SDS011;2845;48.626;9.362;2024-02-26T10:06:43;3.53;;;1.00;;
5646;SDS011;2845;48.626;9.362;2024-02-26T10:09:19;1.80;;;0.88;;
5646;SDS011;2845;48.626;9.362;2024-02-26T10:11:54;1.75;;;0.75;;
5646;SDS011;2845;48.626;9.362;2024-02-26T10:14:28;2.92;;;0.93;;
5646;SDS011;2845;48.626;9.362;2024-02-26T10:17:03;3.05;;;1.08;;
5646;SDS011;2845;48.626;9.362;2024-02-26T10:19:40;2.63;;;0.90;;
5646;SDS011;2845;48.626;9.362;2024-02-26T10:22:16;2.55;;;0.85;;
5646;SDS011;2845;48.626;9.362;2024-02-26T10:24:50;1.88;;;0.75;;
5646;SDS011;2845;48.626;9.362;2024-02-26T10:27:24;1.65;;;0.75;;
5646;SDS011;2845;48.626;9.362;2024-02-26T10:29:59;1.35;;;0.60;;
5646;SDS011;2845;48.626;9.362;2024-02-26T10:32:37;3.03;;;0.90;;
5646;SDS011;2845;48.626;9.362;2024-02-26T10:35:12;2.00;;;0.70;;
5646;SDS011;2845;48.626;9.362;2024-02-26T10:37:48;2.15;;;0.57;;
5646;SDS011;2845;48.626;9.362;2024-02-26T10:40:23;1.45;;;0.77;;
5646;SDS011;2845;48.626;9.362;2024-02-26T10:42:57;1.23;;;0.57;;
5646;SDS011;2845;48.626;9.362;2024-02-26T10:45:33;1.83;;;0.60;;
5646;SDS011;2845;48.626;9.362;2024-02-26T10:48:09;1.05;;;0.45;;
5646;SDS011;2845;48.626;9.362;2024-02-26T10:50:47;1.02;;;0.40;;
5646;SDS011;2845;48.626;9.362;2024-02-26T10:53:24;3.47;;;0.70;;
5646;SDS011;2845;48.626;9.362;2024-02-26T10:56:03;2.10;;;0.50;;
5646;SDS011;2845;48.626;9.362;2024-02-26T10:58:38;2.35;;;0.75;;
5646;SDS011;2845;48.626;9.362;2024-02-26T11:01:13;1.60;;;0.70;;
5646;SDS011;2845;48.626;9.362;2024-02-26T11:03:47;1.92;;;0.43;;
5646;SDS011;2845;48.626;9.362;2024-02-26T11:06:23;1.23;;;0.50;;
5646;SDS011;2845;48.626;9.362;2024-02-26T11:09:02;1.20;;;0.50;;
5646;SDS011;2845;48.626;9.362;2024-02-26T11:11:36;2.22;;;0.68;;
5646;SDS011;2845;48.626;9.362;2024-02-26T11:14:12;1.45;;;0.50;;
5646;SDS011;2845;48.626;9.362;2024-02-26T11:16:48;1.70;;;0.65;;
5646;SDS011;2845;48.626;9.362;2024-02-26T11:19:23;1.13;;;0.52;;
5646;SDS011;2845;48.626;9.362;2024-02-26T11:21:58;1.38;;;0.52;;
5646;SDS011;2845;48.626;9.362;2024-02-26T11:24:48;1.80;;;0.70;;
5646;SDS011;2845;48.626;9.362;2024-02-26T11:27:35;2.65;;;0.47;;
5646;SDS011;2845;48.626;9.362;2024-02-26T11:30:16;1.08;;;0.60;;
5646;SDS011;2845;48.626;9.362;2024-02-26T11:32:52;3.30;;;0.77;;
5646;SDS011;2845;48.626;9.362;2024-02-26T11:35:27;1.13;;;0.50;;
5646;SDS011;2845;48.626;9.362;2024-02-26T11:38:02;1.40;;;0.60;;
5646;SDS011;2845;48.626;9.362;2024-02-26T11:40:40;1.10;;;0.55;;
5646;SDS011;2845;48.626;9.362;2024-02-26T11:43:15;1.23;;;0.65;;
5646;SDS011;2845;48.626;9.362;2024-02-26T11:45:49;2.00;;;0.80;;
5646;SDS011;2845;48.626;9.362;2024-02-26T11:48:25;1.70;;;0.70;;
5646;SDS011;2845;48.626;9.362;2024-02-26T11:51:02;1.30;;;0.40;;
5646;SDS011;2845;48.626;9.362;2024-02-26T11:53:45;1.58;;;0.52;;
5646;SDS011;2845;48.626;9.362;2024-02-26T11:56:22;0.95;;;0.40;;
5646;SDS011;2845;48.626;9.362;2024-02-26T11:59:03;1.45;;;0.45;;
5646;SDS011;2845;48.626;9.362;2024-02-26T12:04:39;0.95;;;0.60;;
5646;SDS011;2845;48.626;9.362;2024-02-26T12:07:13;1.17;;;0.45;;
5646;SDS011;2845;48.626;9.362;2024-02-26T12:09:48;3.00;;;0.88;;
5646;SDS011;2845;48.626;9.362;2024-02-26T12:12:23;1.80;;;0.80;;
5646;SDS011;2845;48.626;9.362;2024-02-26T12:14:59;1.80;;;0.77;;
5646;SDS011;2845;48.626;9.362;2024-02-26T12:17:36;3.92;;;0.80;;
5646;SDS011;2845;48.626;9.362;2024-02-26T12:20:11;1.92;;;0.65;;
5646;SDS011;2845;48.626;9.362;2024-02-26T12:22:49;1.42;;;0.40;;
5646;SDS011;2845;48.626;9.362;2024-02-26T12:25:25;1.33;;;0.50;;
5646;SDS011;2845;48.626;9.362;2024-02-26T12:28:04;0.80;;;0.45;;
5646;SDS011;2845;48.626;9.362;2024-02-26T12:30:38;1.25;;;0.40;;
5646;SDS011;2845;48.626;9.362;2024-02-26T12:33:12;0.85;;;0.40;;
5646;SDS011;2845;48.626;9.362;2024-02-26T12:35:46;1.77;;;0.45;;
5646;SDS011;2845;48.626;9.362;2024-02-26T12:38:22;0.85;;;0.30;;
5646;SDS011;2845;48.626;9.362;2024-02-26T12:40:56;0.88;;;0.40;;
5646;SDS011;2845;48.626;9.362;2024-02-26T12:43:32;1.10;;;0.40;;
5646;SDS011;2845;48.626;9.362;2024-02-26T12:46:07;1.15;;;0.50;;
5646;SDS011;2845;48.626;9.362;2024-02-26T12:48:42;1.17;;;0.40;;
5646;SDS011;2845;48.626;9.362;2024-02-26T12:51:18;2.70;;;0.43;;
5646;SDS011;2845;48.626;9.362;2024-02-26T12:53:53;1.17;;;0.50;;
5646;SDS011;2845;48.626;9.362;2024-02-26T12:56:31;1.17;;;0.40;;
5646;SDS011;2845;48.626;9.362;2024-02-26T12:59:10;1.13;;;0.43;;
5646;SDS011;2845;48.626;9.362;2024-02-26T13:01:45;0.75;;;0.38;;
5646;SDS011;2845;48.626;9.362;2024-02-26T13:04:24;1.13;;;0.40;;
5646;SDS011;2845;48.626;9.362;2024-02-26T13:07:03;0.50;;;0.30;;
5646;SDS011;2845;48.626;9.362;2024-02-26T13:09:44;1.63;;;0.50;;
5646;SDS011;2845;48.626;9.362;2024-02-26T13:12:19;1.55;;;0.40;;
5646;SDS011;2845;48.626;9.362;2024-02-26T13:15:00;0.60;;;0.40;;
5646;SDS011;2845;48.626;9.362;2024-02-26T13:17:38;0.80;;;0.50;;
5646;SDS011;2845;48.626;9.362;2024-02-26T13:20:25;1.40;;;0.50;;
5646;SDS011;2845;48.626;9.362;2024-02-26T13:23:01;1.05;;;0.47;;
5646;SDS011;2845;48.626;9.362;2024-02-26T13:25:37;1.30;;;0.50;;
5646;SDS011;2845;48.626;9.362;2024-02-26T13:28:18;1.20;;;0.40;;
5646;SDS011;2845;48.626;9.362;2024-02-26T13:30:54;1.17;;;0.57;;
5646;SDS011;2845;48.626;9.362;2024-02-26T13:33:30;0.55;;;0.45;;
5646;SDS011;2845;48.626;9.362;2024-02-26T13:36:05;0.88;;;0.30;;
5646;SDS011;2845;48.626;9.362;2024-02-26T13:38:41;0.80;;;0.40;;
5646;SDS011;2845;48.626;9.362;2024-02-26T13:41:25;1.73;;;0.32;;
5646;SDS011;2845;48.626;9.362;2024-02-26T13:43:59;1.23;;;0.57;;
5646;SDS011;2845;48.626;9.362;2024-02-26T13:46:37;1.15;;;0.40;;
5646;SDS011;2845;48.626;9.362;2024-02-26T13:49:12;1.05;;;0.38;;
5646;SDS011;2845;48.626;9.362;2024-02-26T13:51:47;1.05;;;0.47;;
5646;SDS011;2845;48.626;9.362;2024-02-26T13:54:21;2.72;;;0.93;;
5646;SDS011;2845;48.626;9.362;2024-02-26T13:56:55;1.58;;;0.80;;
5646;SDS011;2845;48.626;9.362;2024-02-26T13:59:30;2.85;;;0.70;;
5646;SDS011;2845;48.626;9.362;2024-02-26T14:02:08;1.20;;;0.60;;
5646;SDS011;2845;48.626;9.362;2024-02-26T14:04:43;1.48;;;0.60;;
5646;SDS011;2845;48.626;9.362;2024-02-26T14:07:17;1.73;;;0.57;;
5646;SDS011;2845;48.626;9.362;2024-02-26T14:09:52;2.58;;;0.50;;
5646;SDS011;2845;48.626;9.362;2024-02-26T14:12:27;2.08;;;0.82;;
5646;SDS011;2845;48.626;9.362;2024-02-26T14:15:03;3.13;;;0.60;;
5646;SDS011;2845;48.626;9.362;2024-02-26T14:17:43;1.35;;;0.47;;
5646;SDS011;2845;48.626;9.362;2024-02-26T14:20:25;3.30;;;0.82;;
5646;SDS011;2845;48.626;9.362;2024-02-26T14:23:00;1.77;;;0.80;;
5646;SDS011;2845;48.626;9.362;2024-02-26T14:25:35;1.75;;;0.80;;
5646;SDS011;2845;48.626;9.362;2024-02-26T14:28:10;2.00;;;0.70;;
5646;SDS011;2845;48.626;9.362;2024-02-26T14:30:53;3.22;;;0.63;;
5646;SDS011;2845;48.626;9.362;2024-02-26T14:33:29;2.03;;;0.60;;
5646;SDS011;2845;48.626;9.362;2024-02-26T14:36:04;1.55;;;0.50;;
5646;SDS011;2845;48.626;9.362;2024-02-26T14:38:40;1.50;;;0.70;;
5646;SDS011;2845;48.626;9.362;2024-02-26T14:41:15;2.22;;;0.70;;
5646;SDS011;2845;48.626;9.362;2024-02-26T14:43:49;2.28;;;0.63;;
5646;SDS011;2845;48.626;9.362;2024-02-26T14:46:25;2.35;;;0.50;;
5646;SDS011;2845;48.626;9.362;2024-02-26T14:49:03;1.63;;;0.70;;
5646;SDS011;2845;48.626;9.362;2024-02-26T14:51:38;1.00;;;0.50;;
5646;SDS011;2845;48.626;9.362;2024-02-26T14:54:13;1.23;;;0.50;;
5646;SDS011;2845;48.626;9.362;2024-02-26T14:56:49;1.90;;;0.60;;
5646;SDS011;2845;48.626;9.362;2024-02-26T14:59:25;2.17;;;0.73;;
5646;SDS011;2845;48.626;9.362;2024-02-26T15:02:03;0.85;;;0.43;;
5646;SDS011;2845;48.626;9.362;2024-02-26T15:04:43;1.75;;;0.60;;
5646;SDS011;2845;48.626;9.362;2024-02-26T15:07:19;1.00;;;0.35;;
5646;SDS011;2845;48.626;9.362;2024-02-26T15:09:56;1.65;;;0.60;;
5646;SDS011;2845;48.626;9.362;2024-02-26T15:12:41;2.08;;;0.95;;
5646;SDS011;2845;48.626;9.362;2024-02-26T15:15:19;1.77;;;0.70;;
5646;SDS011;2845;48.626;9.362;2024-02-26T15:17:54;1.13;;;0.55;;
5646;SDS011;2845;48.626;9.362;2024-02-26T15:20:33;1.92;;;0.60;;
5646;SDS011;2845;48.626;9.362;2024-02-26T15:23:08;3.33;;;1.13;;
5646;SDS011;2845;48.626;9.362;2024-02-26T15:25:43;1.60;;;0.70;;
5646;SDS011;2845;48.626;9.362;2024-02-26T15:28:18;2.67;;;0.90;;
5646;SDS011;2845;48.626;9.362;2024-02-26T15:30:54;2.80;;;0.80;;
5646;SDS011;2845;48.626;9.362;2024-02-26T15:33:31;2.13;;;0.93;;
5646;SDS011;2845;48.626;9.362;2024-02-26T15:36:08;1.83;;;0.60;;
5646;SDS011;2845;48.626;9.362;2024-02-26T15:38:45;1.80;;;0.80;;
5646;SDS011;2845;48.626;9.362;2024-02-26T15:41:20;1.65;;;0.70;;
5646;SDS011;2845;48.626;9.362;2024-02-26T15:44:01;1.70;;;0.80;;
5646;SDS011;2845;48.626;9.362;2024-02-26T15:46:38;1.70;;;0.68;;
5646;SDS011;2845;48.626;9.362;2024-02-26T15:49:13;3.28;;;1.02;;
5646;SDS011;2845;48.626;9.362;2024-02-26T15:51:50;2.72;;;0.90;;
5646;SDS011;2845;48.626;9.362;2024-02-26T15:54:24;2.30;;;0.70;;
5646;SDS011;2845;48.626;9.362;2024-02-26T15:57:01;1.40;;;0.70;;
5646;SDS011;2845;48.626;9.362;2024-02-26T15:59:39;1.75;;;0.80;;
5646;SDS011;2845;48.626;9.362;2024-02-26T16:02:13;3.42;;;1.00;;
5646;SDS011;2845;48.626;9.362;2024-02-26T16:04:48;1.67;;;0.60;;
5646;SDS011;2845;48.626;9.362;2024-02-26T16:07:27;1.80;;;0.70;;
5646;SDS011;2845;48.626;9.362;2024-02-26T16:10:12;2.50;;;0.83;;